createdAt,value
2023-04-22T00:02:42.324Z,12.37
2023-04-22T00:06:42.859Z,11.97
2023-04-22T00:10:43.438Z,12.37
2023-04-22T00:14:46.755Z,13.77
2023-04-22T00:18:47.385Z,10.13
2023-04-22T00:22:47.844Z,15.17
2023-04-22T00:26:49.514Z,11.53
2023-04-22T00:30:52.822Z,9.83
2023-04-22T00:34:53.448Z,11.13
2023-04-22T00:38:54.926Z,12.37
2023-04-22T00:42:56.372Z,13.33
2023-04-22T00:47:00.775Z,11.23
2023-04-22T00:51:01.452Z,12.13
2023-04-22T00:55:01.912Z,8.57
2023-04-22T00:59:03.252Z,12.63
2023-04-22T01:03:09.501Z,11.37
2023-04-22T01:07:10.149Z,10.03
2023-04-22T01:11:11.051Z,10.13
2023-04-22T01:15:13.484Z,9.10
2023-04-22T01:19:17.770Z,13.20
2023-04-22T01:23:23.832Z,11.00
2023-04-22T01:27:24.729Z,12.50
2023-04-22T01:31:25.407Z,10.67
2023-04-22T01:35:25.953Z,12.10
2023-04-22T01:39:29.830Z,18.73
2023-04-22T01:43:30.948Z,13.30
2023-04-22T01:47:31.427Z,10.77
2023-04-22T01:51:32.646Z,11.13
2023-04-22T01:55:37.544Z,8.47
2023-04-22T01:59:38.310Z,14.43
2023-04-22T02:03:39.515Z,14.07
2023-04-22T02:07:40.497Z,8.90
2023-04-22T02:11:44.070Z,9.10
2023-04-22T02:15:45.580Z,9.83
2023-04-22T02:19:46.174Z,13.07
2023-04-22T02:23:46.827Z,14.10
2023-04-22T02:27:50.303Z,12.60
2023-04-22T02:31:50.970Z,13.50
2023-04-22T02:35:51.466Z,11.97
2023-04-22T02:39:52.652Z,13.10
2023-04-22T02:43:56.265Z,13.47
2023-04-22T02:47:56.734Z,11.93
2023-04-22T02:51:57.274Z,13.07
2023-04-22T02:55:58.730Z,13.37
2023-04-22T03:00:02.337Z,14.37
2023-04-22T03:04:03.228Z,14.37
2023-04-22T03:08:03.817Z,12.33
2023-04-22T03:12:05.399Z,14.20
2023-04-22T03:16:10.144Z,15.43
2023-04-22T03:20:12.981Z,11.53
2023-04-22T03:24:13.586Z,12.67
2023-04-22T03:28:20.903Z,11.87
2023-04-22T03:32:24.371Z,12.57
2023-04-22T03:36:35.024Z,10.63
2023-04-22T03:40:35.729Z,13.40
2023-04-22T03:44:43.042Z,13.03
2023-04-22T03:48:46.759Z,12.47
2023-04-22T03:52:57.440Z,12.50
2023-04-22T03:56:58.435Z,14.73
2023-04-22T04:01:00.038Z,12.37
2023-04-22T04:05:05.919Z,11.37
2023-04-22T04:09:06.794Z,10.60
2023-04-22T04:13:08.552Z,11.37
2023-04-22T04:17:21.954Z,17.53
2023-04-22T04:21:25.210Z,15.23
2023-04-22T04:25:26.815Z,14.67
2023-04-22T04:29:28.431Z,13.53
2023-04-22T04:33:42.673Z,12.40
2023-04-22T04:37:47.697Z,12.50
2023-04-22T04:41:49.210Z,11.97
2023-04-22T04:45:50.850Z,17.23
2023-04-22T04:49:58.872Z,15.73
2023-04-22T04:54:02.636Z,12.60
2023-04-22T04:58:09.665Z,12.17
2023-04-22T05:02:11.226Z,14.00
2023-04-22T05:06:13.770Z,14.57
2023-04-22T05:10:22.802Z,15.83
2023-04-22T05:14:23.429Z,18.17
2023-04-22T05:18:26.752Z,12.77
2023-04-22T05:22:28.590Z,16.53
2023-04-22T05:26:32.225Z,13.23
2023-04-22T05:30:35.129Z,13.33
2023-04-22T05:34:35.946Z,10.57
2023-04-22T05:38:36.677Z,14.17
2023-04-22T05:42:40.010Z,16.47
2023-04-22T05:46:40.867Z,14.63
2023-04-22T05:50:41.618Z,12.60
2023-04-22T05:54:42.795Z,18.77
2023-04-22T05:58:47.687Z,11.90
2023-04-22T06:02:52.309Z,15.80
2023-04-22T06:06:54.180Z,12.50
2023-04-22T06:10:54.843Z,15.57
2023-04-22T06:15:00.266Z,15.40
2023-04-22T06:19:01.202Z,13.73
2023-04-22T06:23:02.385Z,12.50
2023-04-22T06:27:03.354Z,11.50
2023-04-22T06:31:07.057Z,14.80
2023-04-22T06:35:08.708Z,13.90
2023-04-22T06:39:11.337Z,14.73
2023-04-22T06:43:49.936Z,9.73
2023-04-22T06:48:27.693Z,11.33
2023-04-22T06:52:54.183Z,14.73
2023-04-22T06:56:54.609Z,10.63
2023-04-22T07:00:54.936Z,9.90
2023-04-22T07:04:57.996Z,14.60
2023-04-22T07:08:58.228Z,9.20
2023-04-22T07:12:58.583Z,12.23
2023-04-22T07:16:58.978Z,9.30
2023-04-22T07:21:01.984Z,12.80
2023-04-22T07:25:02.263Z,12.33
2023-04-22T07:29:02.845Z,12.17
2023-04-22T07:33:03.100Z,8.17
2023-04-22T07:37:07.475Z,10.18
2023-04-22T07:41:08.034Z,12.93
2023-04-22T07:45:10.349Z,12.25
2023-04-22T07:49:10.675Z,10.70
2023-04-22T07:53:15.689Z,12.18
2023-04-22T07:57:15.944Z,10.02
2023-04-22T08:01:19.869Z,12.65
2023-04-22T08:05:20.663Z,9.95
2023-04-22T08:09:23.628Z,7.82
2023-04-22T08:13:23.918Z,10.35
2023-04-22T08:17:24.105Z,8.45
2023-04-22T08:21:24.248Z,5.75
2023-04-22T08:25:27.028Z,10.50
2023-04-22T08:29:27.808Z,8.80
2023-04-22T08:33:28.365Z,9.57
2023-04-22T08:37:29.069Z,7.35
2023-04-22T08:41:33.556Z,7.65
2023-04-22T08:45:34.940Z,6.68
2023-04-22T08:49:38.992Z,6.78
2023-04-22T08:53:39.424Z,9.48
2023-04-22T08:57:44.013Z,11.52
2023-04-22T09:01:45.736Z,9.70
2023-04-22T09:05:48.343Z,9.32
2023-04-22T09:09:49.024Z,7.82
2023-04-22T09:13:51.747Z,8.98
2023-04-22T09:17:55.203Z,7.93
2023-04-22T09:21:56.201Z,6.38
2023-04-22T09:25:59.702Z,10.10
2023-04-22T09:30:02.566Z,8.23
2023-04-22T09:34:03.679Z,8.15
2023-04-22T09:38:08.310Z,9.60
2023-04-22T09:42:08.948Z,9.80
2023-04-22T09:46:13.557Z,6.38
2023-04-22T09:50:15.211Z,7.82
2023-04-22T09:54:15.603Z,6.15
2023-04-22T09:58:18.323Z,7.03
2023-04-22T10:02:21.375Z,8.50
2023-04-22T10:06:21.669Z,7.28
2023-04-22T10:10:21.936Z,11.77
2023-04-22T10:14:22.212Z,11.45
2023-04-22T10:18:29.345Z,7.00
2023-04-22T10:22:31.617Z,7.65
2023-04-22T10:26:53.780Z,6.03
2023-04-22T10:30:55.440Z,6.05
2023-04-22T10:35:13.372Z,10.73
2023-04-22T10:39:22.382Z,8.60
2023-04-22T10:43:23.495Z,10.05
2023-04-22T10:47:32.181Z,8.18
2023-04-22T10:51:45.868Z,7.38
2023-04-22T10:55:56.407Z,8.20
2023-04-22T11:00:01.064Z,7.07
2023-04-22T11:04:23.871Z,11.38
2023-04-22T11:08:31.609Z,12.43
2023-04-22T11:12:47.944Z,5.75
2023-04-22T11:16:50.946Z,8.00
2023-04-22T11:20:53.781Z,6.65
2023-04-22T11:25:01.351Z,7.03
2023-04-22T11:29:03.314Z,6.53
2023-04-22T11:33:04.049Z,5.82
2023-04-22T11:37:04.357Z,5.25
2023-04-22T11:41:07.482Z,6.03
2023-04-22T11:45:10.667Z,4.47
2023-04-22T11:49:19.789Z,4.30
2023-04-22T11:53:24.329Z,4.20
2023-04-22T11:57:27.135Z,5.40
2023-04-22T12:01:27.289Z,6.10
2023-04-22T12:05:43.397Z,5.25
2023-04-22T12:09:43.592Z,4.93
2023-04-22T12:13:50.872Z,5.63
2023-04-22T12:17:54.099Z,7.90
2023-04-22T12:21:58.296Z,5.30
2023-04-22T12:25:58.582Z,4.85
2023-04-22T12:30:01.822Z,4.50
2023-04-22T12:34:02.432Z,4.65
2023-04-22T12:38:02.700Z,4.30
2023-04-22T12:42:02.886Z,3.45
2023-04-22T12:46:06.780Z,6.50
2023-04-22T12:50:09.186Z,4.72
2023-04-22T12:54:10.818Z,5.43
2023-04-22T12:58:11.484Z,8.00
2023-04-22T13:02:14.380Z,4.75
2023-04-22T13:06:14.982Z,4.07
2023-04-22T13:10:18.156Z,2.38
2023-04-22T13:14:18.395Z,4.00
2023-04-22T13:18:21.335Z,5.47
2023-04-22T13:22:22.004Z,5.30
2023-04-22T13:26:22.533Z,4.28
2023-04-22T13:30:22.913Z,12.05
2023-04-22T13:34:25.896Z,7.47
2023-04-22T13:38:26.546Z,11.52
2023-04-22T13:42:27.094Z,7.07
2023-04-22T13:46:28.331Z,7.40
2023-04-22T13:50:31.321Z,6.60
2023-04-22T13:54:31.652Z,2.38
2023-04-22T13:58:32.438Z,4.25
2023-04-22T14:02:32.722Z,2.17
2023-04-22T14:06:35.982Z,1.63
2023-04-22T14:10:36.223Z,2.33
2023-04-22T14:14:36.789Z,1.63
2023-04-22T14:18:38.716Z,4.43
2023-04-22T14:22:41.620Z,1.80
2023-04-22T14:26:41.854Z,1.80
2023-04-22T14:30:42.381Z,1.92
2023-04-22T14:34:42.757Z,1.73
2023-04-22T14:38:45.841Z,2.70
2023-04-22T14:42:46.355Z,2.20
2023-04-22T14:46:46.658Z,1.63
2023-04-22T14:50:47.104Z,1.67
2023-04-22T14:54:51.927Z,1.58
2023-04-22T14:58:52.318Z,6.82
2023-04-22T15:02:54.025Z,2.88
2023-04-22T15:06:57.696Z,3.90
2023-04-22T15:11:00.547Z,4.78
2023-04-22T15:15:00.684Z,17.20
2023-04-22T15:19:00.882Z,10.48
2023-04-22T15:23:01.027Z,25.42
2023-04-22T15:27:04.552Z,6.70
2023-04-22T15:31:05.703Z,2.58
2023-04-22T15:35:06.353Z,3.08
2023-04-22T15:39:10.845Z,40.75
2023-04-22T15:43:13.737Z,26.55
2023-04-22T15:47:14.225Z,4.25
2023-04-22T15:51:14.405Z,3.05
2023-04-22T15:55:15.198Z,5.35
2023-04-22T15:59:18.051Z,2.75
2023-04-22T16:03:18.318Z,3.50
2023-04-22T16:07:18.559Z,2.90
2023-04-22T16:11:19.146Z,2.90
2023-04-22T16:15:23.744Z,3.40
2023-04-22T16:19:23.914Z,4.63
2023-04-22T16:23:24.038Z,3.13
2023-04-22T16:27:26.948Z,3.90
2023-04-22T16:31:29.762Z,4.65
2023-04-22T16:35:30.053Z,6.18
2023-04-22T16:39:30.392Z,4.43
2023-04-22T16:43:30.570Z,4.70
2023-04-22T16:47:33.452Z,5.50
2023-04-22T16:51:33.703Z,3.22
2023-04-22T16:55:36.311Z,6.05
2023-04-22T16:59:37.535Z,2.92
2023-04-22T17:03:40.931Z,5.05
2023-04-22T17:07:41.627Z,3.17
2023-04-22T17:11:42.636Z,3.50
2023-04-22T17:15:43.548Z,7.20
2023-04-22T17:19:46.593Z,5.15
2023-04-22T17:23:46.888Z,4.47
2023-04-22T17:27:47.055Z,3.20
2023-04-22T17:31:47.366Z,2.65
2023-04-22T17:35:50.296Z,3.78
2023-04-22T17:39:50.507Z,5.55
2023-04-22T17:43:52.793Z,4.40
2023-04-22T17:47:52.979Z,4.38
2023-04-22T17:51:56.271Z,4.45
2023-04-22T17:55:56.545Z,6.45
2023-04-22T17:59:56.875Z,4.03
2023-04-22T18:03:57.190Z,3.90
2023-04-22T18:08:02.688Z,7.45
2023-04-22T18:12:03.387Z,6.43
2023-04-22T18:16:03.616Z,10.65
2023-04-22T18:20:16.686Z,5.40
2023-04-22T18:24:20.738Z,4.45
2023-04-22T18:28:20.909Z,8.27
2023-04-22T18:32:21.279Z,16.98
2023-04-22T18:36:21.674Z,11.82
2023-04-22T18:40:25.081Z,8.70
2023-04-22T18:44:25.539Z,8.60
2023-04-22T18:48:26.148Z,7.45
2023-04-22T18:52:26.709Z,6.78
2023-04-22T18:56:30.253Z,4.35
2023-04-22T19:00:31.277Z,5.70
2023-04-22T19:04:32.362Z,5.38
2023-04-22T19:08:32.854Z,4.55
2023-04-22T19:23:53.853Z,4.05
2023-04-22T19:27:56.238Z,4.00
2023-04-22T19:31:59.217Z,3.65
2023-04-22T19:36:04.042Z,3.83
2023-04-22T19:40:10.494Z,6.85
2023-04-22T19:44:13.810Z,4.85
2023-04-22T19:48:19.119Z,7.28
2023-04-22T19:52:25.682Z,5.88
2023-04-22T19:56:30.586Z,7.18
2023-04-22T20:00:36.362Z,8.23
2023-04-22T20:04:39.946Z,9.88
2023-04-22T20:08:44.523Z,7.10
2023-04-22T20:12:49.672Z,10.75
2023-04-22T20:16:52.387Z,8.05
2023-04-22T20:20:57.844Z,9.73
2023-04-22T20:25:07.958Z,13.65
2023-04-22T20:29:13.277Z,14.55
2023-04-22T20:33:18.762Z,9.60
2023-04-22T20:37:27.579Z,9.48
2023-04-22T20:41:30.966Z,11.10
2023-04-22T20:45:35.258Z,10.10
2023-04-22T20:49:41.824Z,14.35
2023-04-22T20:53:44.539Z,10.07
2023-04-22T20:57:46.008Z,17.83
2023-04-22T21:01:51.892Z,10.00
2023-04-22T21:05:54.422Z,11.57
2023-04-22T21:09:56.768Z,8.27
2023-04-22T21:13:59.235Z,10.15
2023-04-22T21:18:03.898Z,11.43
2023-04-22T21:22:09.431Z,13.10
2023-04-22T21:26:12.470Z,11.48
2023-04-22T21:30:15.740Z,9.68
2023-04-22T21:34:18.814Z,8.95
2023-04-22T21:38:20.149Z,9.73
2023-04-22T21:42:22.838Z,14.88
2023-04-22T21:46:24.786Z,10.18
2023-04-22T21:50:30.509Z,9.25
2023-04-22T21:54:31.041Z,5.93
2023-04-22T21:58:31.840Z,6.70
2023-04-22T22:02:32.695Z,5.03
2023-04-22T22:06:36.765Z,6.03
2023-04-22T22:10:37.842Z,6.30
2023-04-22T22:14:38.843Z,6.07
2023-04-22T22:18:40.200Z,13.70
2023-04-22T22:22:45.277Z,8.43
2023-04-22T22:26:45.869Z,9.53
2023-04-22T22:30:46.563Z,9.07
2023-04-22T22:34:47.115Z,7.37
2023-04-22T22:38:51.007Z,7.07
2023-04-22T22:42:51.515Z,6.97
2023-04-22T22:46:52.283Z,8.55
2023-04-22T22:50:53.216Z,8.73
2023-04-22T22:54:56.532Z,10.03
2023-04-22T22:58:57.068Z,10.20
2023-04-22T23:02:58.236Z,8.77
2023-04-22T23:06:59.142Z,10.83
2023-04-22T23:11:02.674Z,13.23
2023-04-22T23:15:05.144Z,10.05
2023-04-22T23:19:10.675Z,5.77
2023-04-22T23:23:14.249Z,7.27
2023-04-22T23:27:18.746Z,6.13
2023-04-22T23:31:24.244Z,5.93
2023-04-22T23:35:27.449Z,5.50
2023-04-22T23:39:28.330Z,6.47
2023-04-22T23:43:33.411Z,8.10
2023-04-22T23:47:34.304Z,9.23
2023-04-22T23:51:35.463Z,6.18
2023-04-22T23:55:37.345Z,7.47
2023-04-22T23:59:42.716Z,9.85
